sensor_id;sensor_type;location;lat;lon;timestamp;pressure;altitude;pressure_sealevel;temperature;humidity
53262;BME280;39658;51.090;-1.786;2022-08-14T00:01:54;100336.66;;;18.78;49.38
53262;BME280;39658;51.090;-1.786;2022-08-14T00:04:21;100333.56;;;18.82;49.74
53262;BME280;39658;51.090;-1.786;2022-08-14T00:06:47;100334.75;;;18.86;49.62
53262;BME280;39658;51.090;-1.786;2022-08-14T00:09:14;100328.53;;;18.85;49.77
53262;BME280;39658;51.090;-1.786;2022-08-14T00:11:41;100328.31;;;18.87;49.97
53262;BME280;39658;51.090;-1.786;2022-08-14T00:14:09;100329.59;;;18.84;50.12
53262;BME280;39658;51.090;-1.786;2022-08-14T00:16:36;100321.75;;;18.76;50.04
53262;BME280;39658;51.090;-1.786;2022-08-14T00:19:03;100332.78;;;18.68;50.27
53262;BME280;39658;51.090;-1.786;2022-08-14T00:21:30;100330.31;;;18.60;50.63
53262;BME280;39658;51.090;-1.786;2022-08-14T00:23:57;100323.97;;;18.47;51.18
53262;BME280;39658;51.090;-1.786;2022-08-14T00:26:24;100324.41;;;18.38;51.76
53262;BME280;39658;51.090;-1.786;2022-08-14T00:28:52;100312.81;;;18.37;51.69
53262;BME280;39658;51.090;-1.786;2022-08-14T00:31:21;100319.25;;;18.36;51.78
53262;BME280;39658;51.090;-1.786;2022-08-14T00:33:48;100316.81;;;18.28;52.28
53262;BME280;39658;51.090;-1.786;2022-08-14T00:36:15;100322.00;;;18.23;51.93
53262;BME280;39658;51.090;-1.786;2022-08-14T00:38:42;100320.19;;;18.17;52.78
53262;BME280;39658;51.090;-1.786;2022-08-14T00:41:08;100307.78;;;18.09;52.89
53262;BME280;39658;51.090;-1.786;2022-08-14T00:43:36;100311.34;;;18.03;52.93
53262;BME280;39658;51.090;-1.786;2022-08-14T00:46:06;100309.69;;;18.02;52.70
53262;BME280;39658;51.090;-1.786;2022-08-14T00:48:35;100305.53;;;18.00;52.94
53262;BME280;39658;51.090;-1.786;2022-08-14T00:51:03;100307.41;;;17.93;52.88
53262;BME280;39658;51.090;-1.786;2022-08-14T00:53:30;100305.13;;;17.96;52.56
53262;BME280;39658;51.090;-1.786;2022-08-14T00:55:57;100293.75;;;17.94;51.46
53262;BME280;39658;51.090;-1.786;2022-08-14T00:58:24;100297.25;;;18.01;51.44
53262;BME280;39658;51.090;-1.786;2022-08-14T01:00:58;100294.56;;;17.95;51.67
53262;BME280;39658;51.090;-1.786;2022-08-14T01:03:26;100299.34;;;17.93;52.15
53262;BME280;39658;51.090;-1.786;2022-08-14T01:05:56;100296.06;;;17.84;52.40
53262;BME280;39658;51.090;-1.786;2022-08-14T01:08:25;100290.31;;;17.74;53.20
53262;BME280;39658;51.090;-1.786;2022-08-14T01:10:53;100296.72;;;17.66;53.89
53262;BME280;39658;51.090;-1.786;2022-08-14T01:13:22;100296.31;;;17.63;53.92
53262;BME280;39658;51.090;-1.786;2022-08-14T01:15:51;100287.81;;;17.52;54.32
53262;BME280;39658;51.090;-1.786;2022-08-14T01:18:19;100282.66;;;17.51;54.43
53262;BME280;39658;51.090;-1.786;2022-08-14T01:21:06;100271.50;;;17.47;54.51
53262;BME280;39658;51.090;-1.786;2022-08-14T01:23:40;100270.66;;;17.47;54.20
53262;BME280;39658;51.090;-1.786;2022-08-14T01:26:08;100269.03;;;17.39;54.28
53262;BME280;39658;51.090;-1.786;2022-08-14T01:28:35;100271.94;;;17.38;54.28
53262;BME280;39658;51.090;-1.786;2022-08-14T01:31:05;100260.97;;;17.39;54.17
53262;BME280;39658;51.090;-1.786;2022-08-14T01:33:34;100261.16;;;17.44;53.94
53262;BME280;39658;51.090;-1.786;2022-08-14T01:36:05;100254.53;;;17.47;54.37
53262;BME280;39658;51.090;-1.786;2022-08-14T01:38:34;100259.91;;;17.47;53.95
53262;BME280;39658;51.090;-1.786;2022-08-14T01:41:05;100253.50;;;17.48;54.05
53262;BME280;39658;51.090;-1.786;2022-08-14T01:43:40;100257.22;;;17.47;54.77
53262;BME280;39658;51.090;-1.786;2022-08-14T01:46:08;100249.16;;;17.40;55.26
53262;BME280;39658;51.090;-1.786;2022-08-14T01:48:36;100243.16;;;17.38;55.06
53262;BME280;39658;51.090;-1.786;2022-08-14T01:51:04;100239.47;;;17.33;55.43
53262;BME280;39658;51.090;-1.786;2022-08-14T01:53:31;100238.63;;;17.32;55.54
53262;BME280;39658;51.090;-1.786;2022-08-14T01:56:03;100229.16;;;17.23;55.87
53262;BME280;39658;51.090;-1.786;2022-08-14T01:58:30;100228.09;;;17.17;55.99
53262;BME280;39658;51.090;-1.786;2022-08-14T02:00:58;100226.66;;;17.08;56.60
53262;BME280;39658;51.090;-1.786;2022-08-14T02:03:26;100221.72;;;17.05;56.13
53262;BME280;39658;51.090;-1.786;2022-08-14T02:05:54;100219.84;;;17.06;55.22
53262;BME280;39658;51.090;-1.786;2022-08-14T02:08:24;100215.28;;;17.06;55.33
53262;BME280;39658;51.090;-1.786;2022-08-14T02:10:55;100213.22;;;17.08;54.86
53262;BME280;39658;51.090;-1.786;2022-08-14T02:13:37;100216.53;;;17.10;55.04
53262;BME280;39658;51.090;-1.786;2022-08-14T02:16:04;100206.19;;;17.14;55.28
53262;BME280;39658;51.090;-1.786;2022-08-14T02:18:32;100216.72;;;17.15;54.93
53262;BME280;39658;51.090;-1.786;2022-08-14T02:21:00;100212.19;;;17.09;55.13
53262;BME280;39658;51.090;-1.786;2022-08-14T02:23:28;100209.31;;;17.04;55.75
53262;BME280;39658;51.090;-1.786;2022-08-14T02:25:55;100211.19;;;16.97;56.43
53262;BME280;39658;51.090;-1.786;2022-08-14T02:28:24;100209.13;;;16.92;56.83
53262;BME280;39658;51.090;-1.786;2022-08-14T02:30:52;100205.81;;;16.90;56.95
53262;BME280;39658;51.090;-1.786;2022-08-14T02:33:18;100208.50;;;16.84;57.04
53262;BME280;39658;51.090;-1.786;2022-08-14T02:35:47;100208.47;;;16.77;56.96
53262;BME280;39658;51.090;-1.786;2022-08-14T02:38:14;100213.25;;;16.75;56.73
53262;BME280;39658;51.090;-1.786;2022-08-14T02:40:41;100208.28;;;16.72;56.79
53262;BME280;39658;51.090;-1.786;2022-08-14T02:43:08;100205.38;;;16.74;56.28
53262;BME280;39658;51.090;-1.786;2022-08-14T02:45:35;100220.47;;;16.75;56.24
53262;BME280;39658;51.090;-1.786;2022-08-14T02:48:04;100216.34;;;16.72;56.21
53262;BME280;39658;51.090;-1.786;2022-08-14T02:50:33;100211.16;;;16.64;57.66
53262;BME280;39658;51.090;-1.786;2022-08-14T02:53:02;100213.00;;;16.50;58.07
53262;BME280;39658;51.090;-1.786;2022-08-14T02:55:29;100216.28;;;16.39;58.86
53262;BME280;39658;51.090;-1.786;2022-08-14T02:57:57;100218.56;;;16.36;58.42
53262;BME280;39658;51.090;-1.786;2022-08-14T03:00:24;100215.84;;;16.29;58.45
53262;BME280;39658;51.090;-1.786;2022-08-14T03:02:51;100214.41;;;16.20;58.89
53262;BME280;39658;51.090;-1.786;2022-08-14T03:05:19;100213.34;;;16.14;58.80
53262;BME280;39658;51.090;-1.786;2022-08-14T03:07:48;100209.44;;;16.23;58.56
53262;BME280;39658;51.090;-1.786;2022-08-14T03:10:14;100211.09;;;16.24;58.23
53262;BME280;39658;51.090;-1.786;2022-08-14T03:12:41;100207.81;;;16.36;57.38
53262;BME280;39658;51.090;-1.786;2022-08-14T03:15:09;100204.94;;;16.44;57.30
53262;BME280;39658;51.090;-1.786;2022-08-14T03:17:38;100205.34;;;16.41;57.60
53262;BME280;39658;51.090;-1.786;2022-08-14T03:20:05;100204.09;;;16.37;57.73
53262;BME280;39658;51.090;-1.786;2022-08-14T03:22:34;100210.06;;;16.32;57.89
53262;BME280;39658;51.090;-1.786;2022-08-14T03:25:01;100208.00;;;16.27;58.58
53262;BME280;39658;51.090;-1.786;2022-08-14T03:27:29;100207.38;;;16.25;58.84
53262;BME280;39658;51.090;-1.786;2022-08-14T03:29:56;100198.72;;;16.23;58.48
53262;BME280;39658;51.090;-1.786;2022-08-14T03:32:23;100203.25;;;16.16;58.67
53262;BME280;39658;51.090;-1.786;2022-08-14T03:34:49;100199.53;;;16.11;58.85
53262;BME280;39658;51.090;-1.786;2022-08-14T03:37:16;100214.38;;;16.07;58.99
53262;BME280;39658;51.090;-1.786;2022-08-14T03:39:44;100207.16;;;16.07;58.76
53262;BME280;39658;51.090;-1.786;2022-08-14T03:42:11;100200.91;;;16.00;59.10
53262;BME280;39658;51.090;-1.786;2022-08-14T03:44:38;100194.56;;;16.01;59.09
53262;BME280;39658;51.090;-1.786;2022-08-14T03:47:08;100196.00;;;16.10;58.74
53262;BME280;39658;51.090;-1.786;2022-08-14T03:49:36;100196.22;;;16.15;58.18
53262;BME280;39658;51.090;-1.786;2022-08-14T03:52:04;100200.78;;;16.21;57.62
53262;BME280;39658;51.090;-1.786;2022-08-14T03:54:31;100196.44;;;16.27;57.61
53262;BME280;39658;51.090;-1.786;2022-08-14T03:57:02;100193.97;;;16.32;57.00
53262;BME280;39658;51.090;-1.786;2022-08-14T03:59:29;100191.91;;;16.34;57.33
53262;BME280;39658;51.090;-1.786;2022-08-14T04:01:56;100197.06;;;16.29;57.19
53262;BME280;39658;51.090;-1.786;2022-08-14T04:04:22;100195.63;;;16.26;58.09
53262;BME280;39658;51.090;-1.786;2022-08-14T04:06:49;100195.19;;;16.16;58.13
53262;BME280;39658;51.090;-1.786;2022-08-14T04:09:16;100188.38;;;16.14;58.10
53262;BME280;39658;51.090;-1.786;2022-08-14T04:11:43;100184.03;;;16.06;58.40
53262;BME280;39658;51.090;-1.786;2022-08-14T04:14:12;100183.84;;;16.14;58.60
53262;BME280;39658;51.090;-1.786;2022-08-14T04:16:39;100177.22;;;16.23;57.43
53262;BME280;39658;51.090;-1.786;2022-08-14T04:19:12;100175.16;;;16.32;57.29
53262;BME280;39658;51.090;-1.786;2022-08-14T04:21:48;100163.59;;;16.32;57.23
53262;BME280;39658;51.090;-1.786;2022-08-14T04:24:15;100162.16;;;16.29;57.60
53262;BME280;39658;51.090;-1.786;2022-08-14T04:26:42;100169.38;;;16.22;57.79
53262;BME280;39658;51.090;-1.786;2022-08-14T04:29:09;100165.25;;;16.06;58.26
53262;BME280;39658;51.090;-1.786;2022-08-14T04:31:38;100162.34;;;16.08;58.53
53262;BME280;39658;51.090;-1.786;2022-08-14T04:34:06;100160.28;;;16.03;58.42
53262;BME280;39658;51.090;-1.786;2022-08-14T04:36:32;100156.50;;;15.91;58.98
53262;BME280;39658;51.090;-1.786;2022-08-14T04:39:19;100152.38;;;15.88;59.43
53262;BME280;39658;51.090;-1.786;2022-08-14T04:42:03;100149.88;;;15.80;59.97
53262;BME280;39658;51.090;-1.786;2022-08-14T04:44:47;100145.94;;;15.70;60.36
53262;BME280;39658;51.090;-1.786;2022-08-14T04:47:15;100150.06;;;15.65;60.29
53262;BME280;39658;51.090;-1.786;2022-08-14T04:50:00;100142.22;;;15.64;60.40
53262;BME280;39658;51.090;-1.786;2022-08-14T04:52:28;100148.22;;;15.66;60.68
53262;BME280;39658;51.090;-1.786;2022-08-14T04:54:55;100148.63;;;15.70;60.71
53262;BME280;39658;51.090;-1.786;2022-08-14T04:57:23;100144.31;;;15.75;60.35
53262;BME280;39658;51.090;-1.786;2022-08-14T04:59:50;100141.41;;;15.77;60.63
53262;BME280;39658;51.090;-1.786;2022-08-14T05:02:19;100137.09;;;15.82;59.83
53262;BME280;39658;51.090;-1.786;2022-08-14T05:04:49;100141.44;;;15.83;59.95
53262;BME280;39658;51.090;-1.786;2022-08-14T05:07:16;100137.72;;;15.84;60.40
53262;BME280;39658;51.090;-1.786;2022-08-14T05:09:43;100141.25;;;15.91;60.66
53262;BME280;39658;51.090;-1.786;2022-08-14T05:12:10;100135.88;;;15.91;60.75
53262;BME280;39658;51.090;-1.786;2022-08-14T05:14:37;100132.16;;;15.92;60.83
53262;BME280;39658;51.090;-1.786;2022-08-14T05:17:04;100136.34;;;16.02;61.00
53262;BME280;39658;51.090;-1.786;2022-08-14T05:19:32;100134.06;;;16.12;61.17
53262;BME280;39658;51.090;-1.786;2022-08-14T05:22:00;100136.13;;;16.23;60.37
53262;BME280;39658;51.090;-1.786;2022-08-14T05:24:27;100142.75;;;16.27;60.09
53262;BME280;39658;51.090;-1.786;2022-08-14T05:26:54;100135.94;;;16.38;60.09
53262;BME280;39658;51.090;-1.786;2022-08-14T05:29:21;100133.69;;;16.41;59.54
53262;BME280;39658;51.090;-1.786;2022-08-14T05:31:47;100130.97;;;16.61;59.11
53262;BME280;39658;51.090;-1.786;2022-08-14T05:34:14;100125.63;;;16.68;58.88
53262;BME280;39658;51.090;-1.786;2022-08-14T05:36:43;100130.16;;;16.74;58.68
53262;BME280;39658;51.090;-1.786;2022-08-14T05:39:09;100132.81;;;16.80;59.30
53262;BME280;39658;51.090;-1.786;2022-08-14T05:41:36;100131.63;;;16.83;59.10
53262;BME280;39658;51.090;-1.786;2022-08-14T05:44:03;100128.28;;;16.87;59.14
53262;BME280;39658;51.090;-1.786;2022-08-14T05:46:29;100122.69;;;16.96;58.99
53262;BME280;39658;51.090;-1.786;2022-08-14T05:48:57;100117.94;;;16.98;58.86
53262;BME280;39658;51.090;-1.786;2022-08-14T05:51:24;100125.75;;;17.06;58.95
53262;BME280;39658;51.090;-1.786;2022-08-14T05:53:54;100125.09;;;17.17;58.92
53262;BME280;39658;51.090;-1.786;2022-08-14T05:56:22;100127.34;;;17.33;58.77
53262;BME280;39658;51.090;-1.786;2022-08-14T05:58:50;100131.38;;;17.49;58.66
53262;BME280;39658;51.090;-1.786;2022-08-14T06:01:16;100130.91;;;17.65;57.39
53262;BME280;39658;51.090;-1.786;2022-08-14T06:03:43;100132.75;;;17.78;57.23
53262;BME280;39658;51.090;-1.786;2022-08-14T06:06:10;100136.78;;;17.94;56.55
53262;BME280;39658;51.090;-1.786;2022-08-14T06:08:37;100128.59;;;18.13;55.96
53262;BME280;39658;51.090;-1.786;2022-08-14T06:11:06;100136.34;;;18.28;55.69
53262;BME280;39658;51.090;-1.786;2022-08-14T06:13:35;100130.88;;;18.41;55.43
53262;BME280;39658;51.090;-1.786;2022-08-14T06:16:02;100140.63;;;18.61;55.15
53262;BME280;39658;51.090;-1.786;2022-08-14T06:18:29;100142.69;;;18.90;54.73
53262;BME280;39658;51.090;-1.786;2022-08-14T06:20:56;100141.47;;;19.59;53.21
53262;BME280;39658;51.090;-1.786;2022-08-14T06:23:22;100141.50;;;21.48;48.06
53262;BME280;39658;51.090;-1.786;2022-08-14T06:25:49;100137.75;;;23.67;42.62
53262;BME280;39658;51.090;-1.786;2022-08-14T06:28:19;100145.56;;;25.18;39.04
53262;BME280;39658;51.090;-1.786;2022-08-14T06:30:47;100138.28;;;26.12;36.87
53262;BME280;39658;51.090;-1.786;2022-08-14T06:33:14;100137.16;;;26.89;34.44
53262;BME280;39658;51.090;-1.786;2022-08-14T06:35:42;100137.94;;;27.25;33.96
53262;BME280;39658;51.090;-1.786;2022-08-14T06:38:13;100135.31;;;27.64;34.44
53262;BME280;39658;51.090;-1.786;2022-08-14T06:40:41;100138.53;;;27.76;32.93
53262;BME280;39658;51.090;-1.786;2022-08-14T06:43:09;100141.84;;;26.63;35.54
53262;BME280;39658;51.090;-1.786;2022-08-14T06:45:39;100141.34;;;25.53;37.88
53262;BME280;39658;51.090;-1.786;2022-08-14T06:48:12;100136.28;;;25.67;37.42
53262;BME280;39658;51.090;-1.786;2022-08-14T06:50:42;100133.13;;;25.33;38.55
53262;BME280;39658;51.090;-1.786;2022-08-14T06:53:09;100137.66;;;25.17;38.90
53262;BME280;39658;51.090;-1.786;2022-08-14T06:55:36;100130.09;;;25.29;38.90
53262;BME280;39658;51.090;-1.786;2022-08-14T06:58:03;100125.94;;;25.16;39.70
53262;BME280;39658;51.090;-1.786;2022-08-14T07:00:30;100125.41;;;24.08;42.46
53262;BME280;39658;51.090;-1.786;2022-08-14T07:02:58;100124.84;;;24.06;42.75
53262;BME280;39658;51.090;-1.786;2022-08-14T07:05:43;100124.09;;;24.43;41.64
53262;BME280;39658;51.090;-1.786;2022-08-14T07:08:17;100116.28;;;25.56;39.10
53262;BME280;39658;51.090;-1.786;2022-08-14T07:10:46;100120.56;;;25.26;39.61
53262;BME280;39658;51.090;-1.786;2022-08-14T07:13:13;100117.22;;;25.14;40.05
53262;BME280;39658;51.090;-1.786;2022-08-14T07:15:41;100115.88;;;24.75;40.94
53262;BME280;39658;51.090;-1.786;2022-08-14T07:18:11;100114.53;;;24.40;42.14
53262;BME280;39658;51.090;-1.786;2022-08-14T07:20:39;100113.06;;;24.59;41.71
53262;BME280;39658;51.090;-1.786;2022-08-14T07:23:07;100113.41;;;24.73;41.03
53262;BME280;39658;51.090;-1.786;2022-08-14T07:25:35;100109.94;;;25.25;39.35
53262;BME280;39658;51.090;-1.786;2022-08-14T07:28:08;100111.56;;;26.54;36.83
53262;BME280;39658;51.090;-1.786;2022-08-14T07:30:34;100108.25;;;28.07;34.68
53262;BME280;39658;51.090;-1.786;2022-08-14T07:33:01;100107.31;;;29.32;31.29
53262;BME280;39658;51.090;-1.786;2022-08-14T07:35:30;100102.22;;;30.06;30.86
53262;BME280;39658;51.090;-1.786;2022-08-14T07:37:57;100097.13;;;30.78;29.60
53262;BME280;39658;51.090;-1.786;2022-08-14T07:40:24;100097.06;;;31.25;28.46
53262;BME280;39658;51.090;-1.786;2022-08-14T07:42:51;100099.03;;;31.60;27.67
53262;BME280;39658;51.090;-1.786;2022-08-14T07:45:18;100098.97;;;31.10;28.62
53262;BME280;39658;51.090;-1.786;2022-08-14T07:47:44;100091.47;;;32.02;26.99
53262;BME280;39658;51.090;-1.786;2022-08-14T07:50:13;100095.59;;;32.27;27.58
53262;BME280;39658;51.090;-1.786;2022-08-14T07:52:43;100084.50;;;32.18;27.14
53262;BME280;39658;51.090;-1.786;2022-08-14T07:55:11;100085.81;;;32.43;26.83
53262;BME280;39658;51.090;-1.786;2022-08-14T07:57:39;100087.63;;;32.79;26.28
53262;BME280;39658;51.090;-1.786;2022-08-14T08:00:08;100077.44;;;33.27;26.60
53262;BME280;39658;51.090;-1.786;2022-08-14T08:02:38;100084.44;;;32.85;25.75
53262;BME280;39658;51.090;-1.786;2022-08-14T08:05:06;100073.09;;;33.52;24.45
53262;BME280;39658;51.090;-1.786;2022-08-14T08:07:33;100076.63;;;32.25;26.61
53262;BME280;39658;51.090;-1.786;2022-08-14T08:10:05;100069.53;;;32.86;25.69
53262;BME280;39658;51.090;-1.786;2022-08-14T08:12:53;100065.41;;;33.23;25.50
53262;BME280;39658;51.090;-1.786;2022-08-14T08:15:20;100077.47;;;33.45;25.29
53262;BME280;39658;51.090;-1.786;2022-08-14T08:17:48;100061.75;;;33.62;24.47
53262;BME280;39658;51.090;-1.786;2022-08-14T08:20:16;100057.00;;;34.79;23.50
53262;BME280;39658;51.090;-1.786;2022-08-14T08:22:44;100056.72;;;34.08;23.77
53262;BME280;39658;51.090;-1.786;2022-08-14T08:25:12;100054.22;;;34.79;22.75
53262;BME280;39658;51.090;-1.786;2022-08-14T08:27:39;100044.16;;;35.42;22.64
53262;BME280;39658;51.090;-1.786;2022-08-14T08:30:07;100039.25;;;35.18;22.10
53262;BME280;39658;51.090;-1.786;2022-08-14T08:32:39;100040.22;;;34.93;22.83
53262;BME280;39658;51.090;-1.786;2022-08-14T08:35:16;100031.25;;;34.58;23.28
53262;BME280;39658;51.090;-1.786;2022-08-14T08:37:44;100030.25;;;35.00;22.42
53262;BME280;39658;51.090;-1.786;2022-08-14T08:40:20;100028.31;;;35.01;22.45
53262;BME280;39658;51.090;-1.786;2022-08-14T08:42:47;100029.13;;;35.22;22.90
53262;BME280;39658;51.090;-1.786;2022-08-14T08:45:14;100030.13;;;35.47;22.09
53262;BME280;39658;51.090;-1.786;2022-08-14T08:47:42;100021.78;;;36.09;21.34
53262;BME280;39658;51.090;-1.786;2022-08-14T08:50:17;100017.88;;;36.92;20.63
53262;BME280;39658;51.090;-1.786;2022-08-14T08:52:47;100022.38;;;36.97;20.09
53262;BME280;39658;51.090;-1.786;2022-08-14T08:55:23;100020.22;;;37.43;19.51
53262;BME280;39658;51.090;-1.786;2022-08-14T08:57:53;100021.84;;;37.44;18.85
53262;BME280;39658;51.090;-1.786;2022-08-14T09:00:20;100026.03;;;38.06;18.39
53262;BME280;39658;51.090;-1.786;2022-08-14T09:02:58;100016.50;;;37.51;19.14
53262;BME280;39658;51.090;-1.786;2022-08-14T09:05:28;100021.56;;;36.96;19.59
53262;BME280;39658;51.090;-1.786;2022-08-14T09:08:08;100008.41;;;38.02;19.12
53262;BME280;39658;51.090;-1.786;2022-08-14T09:10:36;100019.25;;;38.98;17.71
53262;BME280;39658;51.090;-1.786;2022-08-14T09:13:04;100011.91;;;38.90;17.79
53262;BME280;39658;51.090;-1.786;2022-08-14T09:15:31;100008.78;;;39.26;16.86
53262;BME280;39658;51.090;-1.786;2022-08-14T09:17:58;100001.06;;;38.53;17.33
53262;BME280;39658;51.090;-1.786;2022-08-14T09:20:25;100000.06;;;38.77;17.73
53262;BME280;39658;51.090;-1.786;2022-08-14T09:22:53;100002.38;;;37.84;18.01
53262;BME280;39658;51.090;-1.786;2022-08-14T09:25:20;100008.50;;;38.17;18.11
53262;BME280;39658;51.090;-1.786;2022-08-14T09:27:48;99996.00;;;38.90;18.63
53262;BME280;39658;51.090;-1.786;2022-08-14T09:30:15;100002.78;;;39.43;16.61
53262;BME280;39658;51.090;-1.786;2022-08-14T09:32:57;99993.69;;;39.27;15.28
53262;BME280;39658;51.090;-1.786;2022-08-14T09:35:34;99992.19;;;38.16;16.48
53262;BME280;39658;51.090;-1.786;2022-08-14T09:38:08;99993.59;;;38.73;15.79
53262;BME280;39658;51.090;-1.786;2022-08-14T09:40:45;99983.47;;;37.74;17.65
53262;BME280;39658;51.090;-1.786;2022-08-14T09:43:29;99984.94;;;39.64;16.76
53262;BME280;39658;51.090;-1.786;2022-08-14T09:45:57;99982.00;;;39.22;16.14
53262;BME280;39658;51.090;-1.786;2022-08-14T09:48:25;99987.22;;;37.53;17.58
53262;BME280;39658;51.090;-1.786;2022-08-14T09:50:54;99975.88;;;37.30;17.46
53262;BME280;39658;51.090;-1.786;2022-08-14T09:53:34;99987.97;;;37.94;17.10
53262;BME280;39658;51.090;-1.786;2022-08-14T09:56:02;99983.44;;;38.80;15.95
53262;BME280;39658;51.090;-1.786;2022-08-14T09:58:37;99977.13;;;38.64;16.17
53262;BME280;39658;51.090;-1.786;2022-08-14T10:01:10;99974.00;;;39.55;15.25
53262;BME280;39658;51.090;-1.786;2022-08-14T10:03:38;99976.34;;;40.15;14.22
53262;BME280;39658;51.090;-1.786;2022-08-14T10:06:14;99967.19;;;40.86;14.39
53262;BME280;39658;51.090;-1.786;2022-08-14T10:08:44;99968.03;;;40.41;14.49
53262;BME280;39658;51.090;-1.786;2022-08-14T10:11:14;99964.06;;;40.42;14.67
53262;BME280;39658;51.090;-1.786;2022-08-14T10:13:44;99970.53;;;39.81;13.69
53262;BME280;39658;51.090;-1.786;2022-08-14T10:16:11;99968.19;;;39.83;13.07
53262;BME280;39658;51.090;-1.786;2022-08-14T10:18:39;99956.41;;;39.70;13.39
53262;BME280;39658;51.090;-1.786;2022-08-14T10:21:08;99960.84;;;40.40;12.17
53262;BME280;39658;51.090;-1.786;2022-08-14T10:23:39;99954.25;;;40.48;12.14
53262;BME280;39658;51.090;-1.786;2022-08-14T10:26:09;99954.28;;;41.05;11.83
53262;BME280;39658;51.090;-1.786;2022-08-14T10:28:41;99948.91;;;40.89;11.89
53262;BME280;39658;51.090;-1.786;2022-08-14T10:31:28;99944.06;;;40.14;12.66
53262;BME280;39658;51.090;-1.786;2022-08-14T10:33:58;99953.19;;;40.11;13.37
53262;BME280;39658;51.090;-1.786;2022-08-14T10:36:27;99951.41;;;39.79;12.29
53262;BME280;39658;51.090;-1.786;2022-08-14T10:38:56;99946.81;;;40.10;12.60
53262;BME280;39658;51.090;-1.786;2022-08-14T10:41:33;99942.34;;;39.25;13.57
53262;BME280;39658;51.090;-1.786;2022-08-14T10:44:08;99943.72;;;39.15;13.55
53262;BME280;39658;51.090;-1.786;2022-08-14T10:46:44;99937.06;;;40.00;13.18
53262;BME280;39658;51.090;-1.786;2022-08-14T10:49:17;99934.06;;;39.90;13.12
53262;BME280;39658;51.090;-1.786;2022-08-14T10:51:56;99933.44;;;38.33;13.44
53262;BME280;39658;51.090;-1.786;2022-08-14T10:54:37;99934.88;;;37.68;13.31
53262;BME280;39658;51.090;-1.786;2022-08-14T10:57:16;99934.22;;;39.00;12.90
53262;BME280;39658;51.090;-1.786;2022-08-14T10:59:49;99937.81;;;40.20;12.44
53262;BME280;39658;51.090;-1.786;2022-08-14T11:02:23;99923.03;;;40.92;12.35
53262;BME280;39658;51.090;-1.786;2022-08-14T11:05:11;99918.66;;;41.61;12.27
53262;BME280;39658;51.090;-1.786;2022-08-14T11:07:40;99914.06;;;41.39;11.51
53262;BME280;39658;51.090;-1.786;2022-08-14T11:10:09;99910.00;;;40.77;12.13
53262;BME280;39658;51.090;-1.786;2022-08-14T11:12:42;99906.66;;;39.11;12.30
53262;BME280;39658;51.090;-1.786;2022-08-14T11:15:14;99897.34;;;38.68;13.45
53262;BME280;39658;51.090;-1.786;2022-08-14T11:17:43;99901.97;;;38.13;13.82
53262;BME280;39658;51.090;-1.786;2022-08-14T11:20:13;99900.69;;;37.95;13.67
53262;BME280;39658;51.090;-1.786;2022-08-14T11:22:40;99891.09;;;37.21;14.39
53262;BME280;39658;51.090;-1.786;2022-08-14T11:25:09;99888.47;;;37.12;14.39
53262;BME280;39658;51.090;-1.786;2022-08-14T11:27:38;99887.44;;;37.60;13.34
53262;BME280;39658;51.090;-1.786;2022-08-14T11:30:07;99895.78;;;37.60;14.46
53262;BME280;39658;51.090;-1.786;2022-08-14T11:32:34;99877.75;;;37.39;13.74
53262;BME280;39658;51.090;-1.786;2022-08-14T11:35:05;99881.53;;;37.74;13.48
53262;BME280;39658;51.090;-1.786;2022-08-14T11:37:32;99883.69;;;38.12;13.65
53262;BME280;39658;51.090;-1.786;2022-08-14T11:39:59;99881.72;;;37.53;13.72
53262;BME280;39658;51.090;-1.786;2022-08-14T11:42:28;99884.59;;;38.83;13.60
53262;BME280;39658;51.090;-1.786;2022-08-14T11:44:58;99885.75;;;39.21;12.85
53262;BME280;39658;51.090;-1.786;2022-08-14T11:47:25;99871.09;;;39.04;12.78
53262;BME280;39658;51.090;-1.786;2022-08-14T11:49:51;99880.34;;;37.91;13.44
53262;BME280;39658;51.090;-1.786;2022-08-14T11:52:20;99875.19;;;37.61;13.49
53262;BME280;39658;51.090;-1.786;2022-08-14T11:54:56;99876.81;;;37.07;14.41
53262;BME280;39658;51.090;-1.786;2022-08-14T11:57:23;99885.63;;;36.96;13.76
53262;BME280;39658;51.090;-1.786;2022-08-14T11:59:59;99874.66;;;37.00;14.43
53262;BME280;39658;51.090;-1.786;2022-08-14T12:02:26;99877.72;;;36.83;13.46
53262;BME280;39658;51.090;-1.786;2022-08-14T12:04:53;99875.75;;;36.59;14.50
53262;BME280;39658;51.090;-1.786;2022-08-14T12:07:21;99876.06;;;36.69;14.62
53262;BME280;39658;51.090;-1.786;2022-08-14T12:09:52;99873.97;;;37.19;13.93
53262;BME280;39658;51.090;-1.786;2022-08-14T12:12:21;99870.78;;;37.60;12.83
53262;BME280;39658;51.090;-1.786;2022-08-14T12:14:49;99874.53;;;37.80;13.71
53262;BME280;39658;51.090;-1.786;2022-08-14T12:17:18;99868.53;;;37.22;14.49
53262;BME280;39658;51.090;-1.786;2022-08-14T12:19:46;99866.88;;;36.29;15.10
53262;BME280;39658;51.090;-1.786;2022-08-14T12:22:13;99863.81;;;35.73;16.42
53262;BME280;39658;51.090;-1.786;2022-08-14T12:24:42;99865.78;;;35.39;16.75
53262;BME280;39658;51.090;-1.786;2022-08-14T12:27:10;99864.75;;;34.90;16.34
53262;BME280;39658;51.090;-1.786;2022-08-14T12:29:49;99854.72;;;35.18;16.27
53262;BME280;39658;51.090;-1.786;2022-08-14T12:32:17;99854.25;;;34.83;16.63
53262;BME280;39658;51.090;-1.786;2022-08-14T12:34:51;99859.00;;;34.95;16.87
53262;BME280;39658;51.090;-1.786;2022-08-14T12:37:27;99843.78;;;34.39;16.35
53262;BME280;39658;51.090;-1.786;2022-08-14T12:40:07;99850.13;;;34.01;17.71
53262;BME280;39658;51.090;-1.786;2022-08-14T12:42:34;99846.06;;;33.99;17.37
53262;BME280;39658;51.090;-1.786;2022-08-14T12:45:02;99836.16;;;34.36;16.74
53262;BME280;39658;51.090;-1.786;2022-08-14T12:47:29;99849.28;;;35.10;15.82
53262;BME280;39658;51.090;-1.786;2022-08-14T12:49:56;99843.09;;;35.91;15.02
53262;BME280;39658;51.090;-1.786;2022-08-14T12:52:28;99836.63;;;36.36;14.63
53262;BME280;39658;51.090;-1.786;2022-08-14T12:55:01;99836.41;;;36.04;14.85